createdAt,value
2022-11-17T00:00:38.917Z,4.72
2022-11-17T00:01:41.549Z,6.18
2022-11-17T00:02:44.851Z,8.15
2022-11-17T00:03:47.602Z,4.10
2022-11-17T00:04:49.172Z,5.90
2022-11-17T00:05:51.838Z,4.50
2022-11-17T00:06:53.491Z,4.38
2022-11-17T00:07:56.045Z,4.88
2022-11-17T00:08:57.634Z,5.07
2022-11-17T00:10:00.178Z,4.35
2022-11-17T00:11:02.234Z,4.45
2022-11-17T00:12:23.035Z,8.90
2022-11-17T00:13:43.372Z,5.05
2022-11-17T00:14:46.009Z,5.07
2022-11-17T00:15:47.598Z,4.10
2022-11-17T00:16:50.673Z,5.93
2022-11-17T00:18:17.629Z,4.53
2022-11-17T00:19:37.898Z,7.65
2022-11-17T00:20:58.234Z,6.78
2022-11-17T00:22:00.755Z,3.70
2022-11-17T00:23:05.853Z,6.22
2022-11-17T00:24:08.609Z,5.55
2022-11-17T00:25:10.378Z,4.15
2022-11-17T00:26:15.625Z,5.72
2022-11-17T00:27:17.342Z,5.40
2022-11-17T00:28:19.889Z,4.18
2022-11-17T00:29:21.565Z,3.95
2022-11-17T00:30:53.073Z,7.43
2022-11-17T00:32:13.517Z,4.25
2022-11-17T00:33:35.389Z,10.07
2022-11-17T00:34:38.117Z,5.30
2022-11-17T00:35:39.704Z,4.93
2022-11-17T00:36:44.440Z,3.38
2022-11-17T00:38:00.897Z,6.50
2022-11-17T00:39:03.625Z,6.53
2022-11-17T00:40:06.443Z,6.13
2022-11-17T00:41:08.949Z,5.95
2022-11-17T00:42:12.425Z,5.13
2022-11-17T00:43:14.935Z,4.97
2022-11-17T00:44:16.605Z,6.35
2022-11-17T00:45:19.204Z,7.03
2022-11-17T00:46:20.789Z,6.03
2022-11-17T00:47:23.313Z,6.00
2022-11-17T00:48:26.276Z,4.43
2022-11-17T00:49:28.831Z,4.57
2022-11-17T00:50:30.409Z,6.78
2022-11-17T00:51:32.975Z,6.15
2022-11-17T00:52:34.521Z,6.15
2022-11-17T00:53:37.275Z,5.35
2022-11-17T00:54:39.992Z,4.85
2022-11-17T00:55:42.719Z,4.20
2022-11-17T00:56:45.342Z,4.28
2022-11-17T00:57:46.907Z,5.10
2022-11-17T00:58:49.412Z,9.80
2022-11-17T00:59:50.926Z,4.72
2022-11-17T01:00:53.417Z,3.72
2022-11-17T01:01:55.042Z,5.53
2022-11-17T01:02:57.575Z,6.22
2022-11-17T01:04:03.361Z,7.75
2022-11-17T01:05:06.853Z,6.80
2022-11-17T01:06:10.994Z,6.10
2022-11-17T01:07:13.641Z,9.02
2022-11-17T01:08:15.226Z,7.18
2022-11-17T01:09:20.518Z,4.82
2022-11-17T01:10:22.077Z,6.72
2022-11-17T01:11:24.609Z,6.65
2022-11-17T01:12:26.210Z,5.47
2022-11-17T01:13:28.769Z,10.52
2022-11-17T01:14:30.667Z,5.25
2022-11-17T01:15:34.288Z,6.55
2022-11-17T01:16:36.819Z,10.07
2022-11-17T01:17:38.446Z,7.15
2022-11-17T01:18:41.606Z,6.15
2022-11-17T01:19:44.452Z,6.32
2022-11-17T01:20:46.950Z,5.55
2022-11-17T01:21:49.796Z,8.05
2022-11-17T01:22:51.349Z,7.13
2022-11-17T01:23:55.650Z,8.38
2022-11-17T01:24:57.236Z,8.00
2022-11-17T01:26:03.143Z,7.88
2022-11-17T01:27:04.732Z,8.75
2022-11-17T01:28:07.330Z,8.02
2022-11-17T01:29:10.718Z,9.75
2022-11-17T01:30:13.959Z,6.00
2022-11-17T01:31:17.035Z,8.93
2022-11-17T01:32:19.661Z,6.43
2022-11-17T01:33:21.325Z,8.77
2022-11-17T01:34:23.884Z,7.10
2022-11-17T01:35:26.782Z,5.70
2022-11-17T01:36:30.965Z,10.68
2022-11-17T01:37:32.605Z,11.77
2022-11-17T01:38:35.273Z,5.32
2022-11-17T01:39:36.969Z,8.23
2022-11-17T01:40:39.467Z,9.02
2022-11-17T01:41:41.042Z,7.10
2022-11-17T01:42:43.664Z,7.93
2022-11-17T01:43:47.108Z,7.15
2022-11-17T01:45:01.010Z,6.35
2022-11-17T01:46:02.667Z,8.98
2022-11-17T01:47:06.307Z,8.07
2022-11-17T01:48:08.273Z,6.13
2022-11-17T01:49:14.752Z,8.07
2022-11-17T01:50:22.006Z,9.07
2022-11-17T01:51:26.376Z,6.93
2022-11-17T01:52:29.820Z,5.95
2022-11-17T01:53:35.388Z,7.43
2022-11-17T01:54:40.382Z,7.45
2022-11-17T01:55:45.622Z,8.52
2022-11-17T01:56:49.467Z,9.65
2022-11-17T01:57:54.524Z,7.90
2022-11-17T01:58:58.545Z,6.72
2022-11-17T02:00:04.683Z,6.57
2022-11-17T02:01:06.299Z,10.48
2022-11-17T02:02:09.052Z,8.95
2022-11-17T02:03:11.233Z,7.20
2022-11-17T02:04:13.804Z,6.90
2022-11-17T02:05:23.361Z,7.40
2022-11-17T02:06:29.880Z,8.70
2022-11-17T02:07:33.271Z,9.68
2022-11-17T02:08:38.229Z,7.57
2022-11-17T02:09:40.780Z,9.95
2022-11-17T02:10:48.534Z,11.35
2022-11-17T02:11:53.293Z,10.57
2022-11-17T02:12:55.930Z,8.63
2022-11-17T02:13:57.524Z,10.93
2022-11-17T02:15:00.909Z,7.15
2022-11-17T02:16:02.511Z,10.38
2022-11-17T02:17:13.080Z,9.52
2022-11-17T02:18:16.054Z,10.27
2022-11-17T02:19:18.723Z,7.93
2022-11-17T02:20:30.689Z,9.68
2022-11-17T02:21:55.780Z,9.13
2022-11-17T02:23:21.581Z,7.65
2022-11-17T02:24:37.635Z,8.50
2022-11-17T02:25:52.418Z,11.07
2022-11-17T02:27:07.568Z,7.55
2022-11-17T02:28:15.094Z,9.35
2022-11-17T02:29:22.639Z,8.60
2022-11-17T02:30:24.425Z,8.05
2022-11-17T02:31:33.224Z,7.80
2022-11-17T02:32:42.400Z,13.02
2022-11-17T02:33:54.554Z,9.20
2022-11-17T02:35:05.448Z,12.75
2022-11-17T02:36:11.189Z,8.05
2022-11-17T02:37:17.729Z,8.82
2022-11-17T02:38:26.981Z,9.18
2022-11-17T02:39:32.210Z,9.10
2022-11-17T02:40:36.133Z,8.02
2022-11-17T02:41:44.050Z,10.57
2022-11-17T02:43:06.992Z,9.48
2022-11-17T02:44:14.257Z,8.48
2022-11-17T02:45:18.553Z,9.45
2022-11-17T02:46:21.970Z,10.80
2022-11-17T02:47:27.910Z,9.85
2022-11-17T02:48:32.585Z,10.93
2022-11-17T02:49:37.292Z,9.07
2022-11-17T02:50:39.468Z,11.15
2022-11-17T02:51:44.147Z,11.52
2022-11-17T02:52:45.860Z,8.90
2022-11-17T02:53:49.329Z,10.40
2022-11-17T02:54:50.890Z,11.52
2022-11-17T02:55:54.531Z,10.05
2022-11-17T02:56:56.210Z,9.77
2022-11-17T02:57:58.767Z,14.38
2022-11-17T02:59:03.163Z,10.85
2022-11-17T03:00:09.928Z,12.93
2022-11-17T03:01:23.817Z,11.60
2022-11-17T03:02:34.888Z,19.02
2022-11-17T03:03:49.880Z,10.32
2022-11-17T03:05:01.481Z,12.70
2022-11-17T03:06:10.668Z,12.30
2022-11-17T03:07:25.484Z,14.05
2022-11-17T03:08:33.289Z,12.52
2022-11-17T03:09:43.375Z,13.30
2022-11-17T03:10:52.436Z,13.00
2022-11-17T03:12:00.529Z,13.52
2022-11-17T03:13:08.250Z,12.55
2022-11-17T03:14:16.400Z,11.55
2022-11-17T03:15:24.201Z,13.73
2022-11-17T03:16:31.482Z,12.70
2022-11-17T03:17:37.952Z,10.48
2022-11-17T03:18:46.350Z,12.02
2022-11-17T03:19:54.733Z,15.15
2022-11-17T03:21:05.413Z,13.23
2022-11-17T03:22:12.322Z,12.18
2022-11-17T03:23:18.887Z,13.63
2022-11-17T03:24:23.730Z,15.73
2022-11-17T03:25:26.999Z,14.48
2022-11-17T03:26:32.010Z,12.98
2022-11-17T03:27:35.604Z,12.40
2022-11-17T03:28:39.117Z,14.73
2022-11-17T03:29:42.133Z,16.80
2022-11-17T03:30:47.745Z,15.98
2022-11-17T03:31:53.274Z,13.48
2022-11-17T03:33:02.215Z,11.70
2022-11-17T03:34:05.797Z,13.77
2022-11-17T03:35:10.527Z,15.43
2022-11-17T03:36:14.897Z,12.68
2022-11-17T03:37:20.604Z,10.77
2022-11-17T03:38:24.160Z,14.23
2022-11-17T03:39:29.494Z,14.40
2022-11-17T03:40:32.845Z,14.98
2022-11-17T03:41:38.924Z,15.68
2022-11-17T03:42:42.461Z,13.32
2022-11-17T03:43:45.631Z,14.57
2022-11-17T03:44:49.946Z,14.27
2022-11-17T03:45:55.841Z,14.65
2022-11-17T03:46:59.573Z,15.05
2022-11-17T03:48:05.377Z,15.32
2022-11-17T03:49:16.232Z,12.70
2022-11-17T03:50:23.184Z,15.88
2022-11-17T03:51:26.814Z,11.68
2022-11-17T03:52:30.536Z,15.27
2022-11-17T03:53:32.696Z,16.73
2022-11-17T03:54:36.417Z,13.85
2022-11-17T03:55:43.002Z,15.93
2022-11-17T03:57:47.329Z,14.90
2022-11-17T03:59:52.923Z,17.10
2022-11-17T04:01:01.717Z,14.07
2022-11-17T04:02:04.400Z,13.43
2022-11-17T04:03:06.066Z,18.63
2022-11-17T04:04:08.838Z,13.38
2022-11-17T04:05:11.680Z,17.90
2022-11-17T04:06:14.213Z,11.98
2022-11-17T04:07:25.796Z,13.85
2022-11-17T04:08:30.577Z,16.98
2022-11-17T04:09:32.208Z,13.45
2022-11-17T04:10:56.939Z,14.70
2022-11-17T04:12:23.065Z,14.68
2022-11-17T04:13:43.374Z,15.30
2022-11-17T04:15:12.117Z,13.85
2022-11-17T04:16:16.239Z,16.98
2022-11-17T04:17:17.791Z,13.45
2022-11-17T04:18:20.974Z,15.77
2022-11-17T04:19:22.559Z,16.05
2022-11-17T04:20:25.487Z,13.18
2022-11-17T04:21:28.117Z,16.17
2022-11-17T04:22:29.660Z,15.65
2022-11-17T04:23:32.319Z,16.25
2022-11-17T04:24:34.014Z,14.45
2022-11-17T04:25:54.785Z,13.95
2022-11-17T04:27:15.105Z,14.43
2022-11-17T04:28:35.382Z,16.98
2022-11-17T04:29:37.903Z,13.25
2022-11-17T04:30:39.425Z,13.77
2022-11-17T04:31:43.330Z,16.35
2022-11-17T04:32:44.886Z,14.27
2022-11-17T04:33:49.365Z,15.50
2022-11-17T04:34:50.901Z,14.68
2022-11-17T04:35:53.418Z,15.82
2022-11-17T04:36:55.979Z,17.73
2022-11-17T04:37:57.571Z,14.13
2022-11-17T04:39:00.887Z,13.07
2022-11-17T04:40:02.506Z,20.80
2022-11-17T04:41:24.775Z,15.05
2022-11-17T04:42:27.313Z,15.13
2022-11-17T04:43:28.916Z,14.73
2022-11-17T04:44:32.880Z,15.25
2022-11-17T04:45:34.493Z,13.90
2022-11-17T04:46:38.196Z,15.73
2022-11-17T04:47:41.137Z,15.32
2022-11-17T04:48:43.927Z,17.00
2022-11-17T04:49:46.436Z,17.15
2022-11-17T04:50:47.995Z,14.70
2022-11-17T04:51:51.322Z,14.82
2022-11-17T04:52:52.829Z,16.92
2022-11-17T04:53:55.829Z,15.35
2022-11-17T04:54:57.394Z,16.55
2022-11-17T04:56:00.665Z,14.63
2022-11-17T04:57:03.190Z,15.40
2022-11-17T04:58:04.687Z,18.95
2022-11-17T04:59:07.895Z,13.77
2022-11-17T05:00:10.587Z,16.15
2022-11-17T05:01:13.323Z,16.15
2022-11-17T05:02:15.891Z,16.02
2022-11-17T05:03:18.781Z,17.30
2022-11-17T05:04:35.646Z,15.25
2022-11-17T05:05:38.149Z,14.38
2022-11-17T05:06:42.412Z,15.02
2022-11-17T05:07:43.929Z,14.15
2022-11-17T05:08:46.876Z,14.38
2022-11-17T05:09:48.424Z,16.17
2022-11-17T05:11:08.804Z,14.68
2022-11-17T05:12:29.035Z,14.23
2022-11-17T05:13:31.539Z,18.92
2022-11-17T05:14:33.186Z,15.88
2022-11-17T05:15:49.622Z,15.95
2022-11-17T05:17:10.996Z,15.90
2022-11-17T05:18:13.279Z,15.23
2022-11-17T05:19:18.385Z,16.67
2022-11-17T05:20:20.964Z,15.18
2022-11-17T05:21:22.565Z,13.70
2022-11-17T05:22:42.994Z,15.68
2022-11-17T05:23:53.890Z,13.82
2022-11-17T05:24:56.862Z,17.40
2022-11-17T05:25:58.454Z,14.32
2022-11-17T05:27:00.997Z,17.75
2022-11-17T05:28:02.556Z,13.15
2022-11-17T05:29:06.934Z,18.25
2022-11-17T05:30:10.270Z,20.25
2022-11-17T05:31:12.909Z,15.32
2022-11-17T05:32:15.506Z,16.85
2022-11-17T05:33:17.068Z,15.45
2022-11-17T05:34:21.038Z,15.95
2022-11-17T05:35:22.587Z,13.57
2022-11-17T05:36:26.270Z,17.45
2022-11-17T05:37:27.860Z,16.63
2022-11-17T05:38:30.472Z,16.15
2022-11-17T05:39:32.036Z,18.10
2022-11-17T05:40:34.616Z,14.65
2022-11-17T05:41:37.105Z,15.82
2022-11-17T05:42:39.697Z,14.68
2022-11-17T05:43:41.333Z,15.35
2022-11-17T05:44:43.863Z,15.48
2022-11-17T05:45:45.890Z,14.38
2022-11-17T05:46:48.465Z,15.70
2022-11-17T05:47:50.176Z,13.18
2022-11-17T05:48:53.824Z,14.27
2022-11-17T05:49:56.722Z,15.10
2022-11-17T05:50:59.248Z,14.23
2022-11-17T05:52:01.822Z,11.50
2022-11-17T05:53:03.495Z,14.10
2022-11-17T05:54:06.240Z,15.70
2022-11-17T05:55:07.946Z,14.00
2022-11-17T05:56:17.754Z,15.38
2022-11-17T05:57:24.755Z,15.27
2022-11-17T05:58:29.086Z,13.70
2022-11-17T05:59:35.044Z,12.70
2022-11-17T06:00:37.437Z,14.45
2022-11-17T06:01:43.403Z,14.13
2022-11-17T06:02:47.622Z,12.77
2022-11-17T06:03:53.231Z,13.18
2022-11-17T06:04:57.143Z,13.00
2022-11-17T06:05:58.797Z,13.15
2022-11-17T06:07:02.810Z,13.10
2022-11-17T06:08:05.135Z,14.18
2022-11-17T06:09:07.854Z,12.48
2022-11-17T06:10:10.167Z,14.13
2022-11-17T06:11:16.892Z,12.85
2022-11-17T06:12:19.556Z,13.55
2022-11-17T06:13:25.960Z,16.17
2022-11-17T06:14:28.485Z,13.95
2022-11-17T06:15:30.155Z,12.10
2022-11-17T06:16:33.830Z,16.55
2022-11-17T06:17:37.885Z,14.05
2022-11-17T06:18:42.992Z,12.77
2022-11-17T06:19:47.109Z,11.60
2022-11-17T06:20:53.463Z,15.98
2022-11-17T06:22:11.781Z,12.82
2022-11-17T06:23:17.305Z,12.02
2022-11-17T06:24:19.471Z,15.93
2022-11-17T06:25:22.053Z,11.93
2022-11-17T06:26:23.723Z,14.38
2022-11-17T06:27:26.542Z,13.48
2022-11-17T06:28:30.076Z,10.15
2022-11-17T06:29:32.641Z,12.35
2022-11-17T06:30:34.614Z,12.50
2022-11-17T06:31:37.176Z,12.52
2022-11-17T06:32:40.177Z,13.07
2022-11-17T06:33:42.815Z,14.18
2022-11-17T06:34:49.112Z,12.25
2022-11-17T06:35:56.149Z,11.10
2022-11-17T06:36:57.732Z,12.85
2022-11-17T06:38:00.495Z,12.75
2022-11-17T06:39:02.137Z,15.27
2022-11-17T06:40:05.418Z,12.25
2022-11-17T06:41:11.678Z,11.05
2022-11-17T06:42:14.629Z,11.07
2022-11-17T06:43:16.834Z,12.93
2022-11-17T06:44:19.403Z,11.60
2022-11-17T06:45:20.963Z,11.80
2022-11-17T06:46:23.544Z,11.55
2022-11-17T06:47:25.156Z,11.25
2022-11-17T06:48:27.845Z,12.60
2022-11-17T06:49:29.432Z,11.65
2022-11-17T06:50:32.332Z,12.10
2022-11-17T06:51:38.925Z,10.57
2022-11-17T06:52:43.912Z,10.73
2022-11-17T06:53:46.445Z,11.82
2022-11-17T06:54:48.022Z,9.30
2022-11-17T06:55:52.542Z,14.60
2022-11-17T06:56:55.267Z,12.00
2022-11-17T06:58:01.374Z,9.25
2022-11-17T06:59:03.941Z,11.85
2022-11-17T07:00:06.876Z,14.68
2022-11-17T07:01:11.258Z,7.95
2022-11-17T07:02:13.034Z,14.52
2022-11-17T07:03:15.586Z,9.52
2022-11-17T07:04:17.140Z,11.68
2022-11-17T07:05:19.702Z,12.00
2022-11-17T07:06:22.284Z,10.68
2022-11-17T07:07:25.395Z,9.10
2022-11-17T07:08:28.145Z,13.18
2022-11-17T07:09:29.773Z,12.18
2022-11-17T07:10:33.325Z,10.10
2022-11-17T07:11:35.773Z,10.68
2022-11-17T07:12:38.339Z,13.05
2022-11-17T07:13:41.022Z,10.52
2022-11-17T07:14:42.655Z,10.95
2022-11-17T07:15:45.289Z,10.73
2022-11-17T07:16:46.911Z,9.40
2022-11-17T07:17:49.558Z,8.80
2022-11-17T07:18:53.669Z,11.45
2022-11-17T07:19:55.353Z,9.73
2022-11-17T07:21:01.610Z,8.18
2022-11-17T07:22:03.615Z,10.60
2022-11-17T07:23:07.598Z,6.78
2022-11-17T07:24:10.239Z,8.70
2022-11-17T07:25:12.540Z,10.20
2022-11-17T07:26:15.130Z,8.55
2022-11-17T07:27:17.679Z,9.57
2022-11-17T07:28:19.274Z,9.35
2022-11-17T07:29:22.204Z,9.45
2022-11-17T07:30:23.769Z,7.70
2022-11-17T07:31:26.406Z,9.40
2022-11-17T07:32:27.950Z,10.88
2022-11-17T07:33:30.670Z,9.15
2022-11-17T07:34:32.359Z,10.63
2022-11-17T07:35:36.410Z,7.63
2022-11-17T07:36:38.095Z,7.15
2022-11-17T07:37:40.680Z,8.90
2022-11-17T07:38:44.586Z,7.20
2022-11-17T07:39:46.161Z,6.63
2022-11-17T07:40:48.728Z,8.60
2022-11-17T07:41:50.355Z,6.03
2022-11-17T07:42:52.860Z,14.32
2022-11-17T07:43:54.433Z,9.02
2022-11-17T07:44:56.979Z,6.53
2022-11-17T07:45:58.639Z,8.60
2022-11-17T07:47:01.298Z,8.13
2022-11-17T07:48:04.870Z,9.13
2022-11-17T07:49:07.448Z,8.45
2022-11-17T07:50:09.816Z,8.88
2022-11-17T07:51:13.962Z,7.38
2022-11-17T07:52:15.553Z,6.95
2022-11-17T07:53:18.084Z,6.03
2022-11-17T07:54:21.017Z,6.63
2022-11-17T07:55:24.482Z,5.15
2022-11-17T07:56:26.144Z,7.38
2022-11-17T07:57:31.092Z,7.68
2022-11-17T07:58:34.125Z,5.90
2022-11-17T07:59:37.037Z,5.75
2022-11-17T08:00:39.675Z,8.88
2022-11-17T08:01:42.048Z,7.72
2022-11-17T08:02:44.639Z,6.90
2022-11-17T08:03:46.367Z,8.20
2022-11-17T08:04:48.942Z,7.38
2022-11-17T08:05:53.330Z,8.65
2022-11-17T08:06:54.984Z,6.57
2022-11-17T08:07:58.337Z,6.20
2022-11-17T08:08:59.921Z,6.72
2022-11-17T08:10:04.060Z,6.47
2022-11-17T08:11:07.956Z,7.15
2022-11-17T08:12:09.685Z,7.47
2022-11-17T08:13:13.993Z,4.93
2022-11-17T08:14:15.546Z,6.07
2022-11-17T08:15:18.191Z,5.32
2022-11-17T08:16:20.556Z,4.32
2022-11-17T08:17:23.113Z,6.85
2022-11-17T08:18:24.907Z,4.43
2022-11-17T08:19:27.680Z,4.55
2022-11-17T08:20:29.520Z,4.72
2022-11-17T08:21:32.282Z,4.90
2022-11-17T08:22:33.893Z,7.00
2022-11-17T08:23:38.076Z,4.40
2022-11-17T08:24:40.608Z,5.95
2022-11-17T08:25:44.749Z,5.43
2022-11-17T08:26:48.090Z,5.68
2022-11-17T08:27:52.018Z,6.28
2022-11-17T08:28:58.405Z,4.93
2022-11-17T08:30:01.619Z,4.90
2022-11-17T08:31:05.178Z,4.93
2022-11-17T08:32:07.088Z,4.63
2022-11-17T08:33:09.818Z,4.25
2022-11-17T08:34:11.845Z,6.88
2022-11-17T08:35:14.657Z,5.35
2022-11-17T08:36:17.468Z,5.80
2022-11-17T08:37:19.296Z,5.18
2022-11-17T08:38:24.860Z,7.13
2022-11-17T08:39:26.475Z,4.68
2022-11-17T08:40:29.066Z,5.90
2022-11-17T08:41:33.067Z,9.05
2022-11-17T08:42:34.613Z,4.68
2022-11-17T08:43:37.357Z,5.18
2022-11-17T08:44:39.323Z,6.60
2022-11-17T08:45:43.191Z,5.05
2022-11-17T08:46:44.826Z,4.63
2022-11-17T08:47:47.329Z,4.85
2022-11-17T08:48:51.020Z,5.22
2022-11-17T08:49:58.317Z,4.85
2022-11-17T08:51:05.846Z,7.45
2022-11-17T08:52:08.477Z,6.35
2022-11-17T08:53:14.845Z,5.72
2022-11-17T08:54:16.437Z,5.63
2022-11-17T08:55:19.057Z,6.57
2022-11-17T08:56:21.689Z,5.53
2022-11-17T08:57:25.762Z,6.28
2022-11-17T08:58:27.422Z,5.13
2022-11-17T08:59:29.949Z,4.28
2022-11-17T09:00:31.592Z,6.40
2022-11-17T09:01:34.200Z,6.65
2022-11-17T09:02:38.131Z,8.82
2022-11-17T09:03:43.049Z,6.18
2022-11-17T09:04:46.039Z,6.15
2022-11-17T09:05:48.867Z,4.80
2022-11-17T09:06:50.557Z,5.10
2022-11-17T09:07:53.364Z,5.68
2022-11-17T09:08:56.453Z,4.43
2022-11-17T09:09:58.224Z,5.32
2022-11-17T09:11:05.078Z,7.85
2022-11-17T09:12:07.758Z,3.55
2022-11-17T09:13:21.641Z,6.18
2022-11-17T09:14:24.334Z,4.38
2022-11-17T09:15:25.936Z,5.68
2022-11-17T09:16:28.762Z,3.83
2022-11-17T09:17:31.951Z,3.40
2022-11-17T09:18:35.064Z,5.18
2022-11-17T09:19:37.844Z,5.97
2022-11-17T09:20:44.359Z,5.18
2022-11-17T09:21:48.657Z,3.10
2022-11-17T09:22:50.280Z,6.32
2022-11-17T09:23:52.910Z,6.05
2022-11-17T09:24:54.470Z,6.70
2022-11-17T09:25:56.980Z,4.13
2022-11-17T09:26:59.464Z,6.32
2022-11-17T09:28:01.718Z,5.57
2022-11-17T09:29:05.691Z,5.90
2022-11-17T09:30:08.401Z,8.48
2022-11-17T09:31:13.085Z,4.55
2022-11-17T09:32:16.746Z,6.90
2022-11-17T09:33:18.432Z,2.75
2022-11-17T09:34:21.101Z,4.40
2022-11-17T09:35:23.942Z,5.15
2022-11-17T09:36:26.638Z,3.85
2022-11-17T09:37:29.182Z,4.47
2022-11-17T09:38:31.780Z,4.70
2022-11-17T09:39:34.391Z,6.30
2022-11-17T09:40:38.152Z,4.43
2022-11-17T09:41:43.335Z,4.60
2022-11-17T09:42:46.455Z,5.40
2022-11-17T09:43:51.245Z,4.35
2022-11-17T09:45:00.456Z,6.93
2022-11-17T09:46:16.365Z,7.05
2022-11-17T09:47:24.691Z,7.07
2022-11-17T09:48:41.496Z,4.97
2022-11-17T09:49:56.963Z,3.88
2022-11-17T09:51:01.323Z,5.03
2022-11-17T09:52:08.850Z,3.15
2022-11-17T09:53:15.207Z,3.15
2022-11-17T09:54:21.960Z,3.88
2022-11-17T09:55:33.696Z,3.55
2022-11-17T09:56:36.839Z,5.25
2022-11-17T09:57:41.370Z,3.10
2022-11-17T09:58:46.799Z,4.35
2022-11-17T10:00:03.239Z,5.25
2022-11-17T10:01:06.633Z,6.57
2022-11-17T10:02:10.717Z,5.05
2022-11-17T10:03:19.477Z,6.78
2022-11-17T10:04:20.984Z,6.50
2022-11-17T10:05:28.261Z,4.38
2022-11-17T10:06:32.893Z,2.45
2022-11-17T10:07:34.965Z,3.97
2022-11-17T10:08:41.679Z,3.63
2022-11-17T10:09:45.478Z,4.53
2022-11-17T10:10:50.130Z,3.22
2022-11-17T10:11:52.962Z,3.13
2022-11-17T10:12:59.274Z,4.18
2022-11-17T10:14:12.808Z,4.90
2022-11-17T10:15:22.864Z,2.55
2022-11-17T10:16:26.960Z,3.50
2022-11-17T10:17:29.564Z,3.70
2022-11-17T10:18:37.877Z,4.00
2022-11-17T10:19:41.231Z,2.55
2022-11-17T10:20:45.342Z,4.72
2022-11-17T10:21:50.506Z,3.72
2022-11-17T10:22:54.924Z,2.58
2022-11-17T10:23:59.067Z,3.80
2022-11-17T10:25:00.703Z,2.03
2022-11-17T10:26:09.357Z,2.95
2022-11-17T10:27:21.061Z,2.70
2022-11-17T10:28:26.307Z,4.20
2022-11-17T10:29:28.127Z,2.95
2022-11-17T10:30:30.647Z,2.45
2022-11-17T10:31:40.664Z,2.40
2022-11-17T10:32:49.077Z,3.58
2022-11-17T10:33:52.354Z,2.67
2022-11-17T10:34:55.235Z,3.17
2022-11-17T10:35:57.570Z,2.10
2022-11-17T10:37:05.688Z,5.35
2022-11-17T10:38:19.046Z,3.95
2022-11-17T10:39:34.381Z,2.83
2022-11-17T10:40:47.615Z,2.95
2022-11-17T10:41:50.388Z,4.30
2022-11-17T10:43:01.907Z,3.05
2022-11-17T10:44:05.861Z,2.05
2022-11-17T10:45:17.463Z,3.22
2022-11-17T10:46:19.047Z,3.92
2022-11-17T10:47:31.638Z,2.10
2022-11-17T10:48:35.609Z,3.13
2022-11-17T10:49:38.407Z,2.75
2022-11-17T10:50:52.476Z,2.95
2022-11-17T10:52:06.350Z,2.25
2022-11-17T10:53:22.533Z,2.35
2022-11-17T10:54:25.026Z,6.30
2022-11-17T10:55:28.552Z,1.67
2022-11-17T10:56:32.162Z,3.80
2022-11-17T10:57:33.693Z,2.58
2022-11-17T10:58:56.545Z,1.77
2022-11-17T10:59:59.363Z,2.15
2022-11-17T11:01:03.098Z,2.03
2022-11-17T11:02:28.585Z,2.47
2022-11-17T11:03:32.430Z,1.25
2022-11-17T11:04:36.876Z,4.38
2022-11-17T11:05:59.919Z,3.30
2022-11-17T11:07:10.923Z,2.67
2022-11-17T11:08:19.472Z,1.33
2022-11-17T11:09:22.641Z,2.50
2022-11-17T11:10:29.765Z,2.80
2022-11-17T11:11:42.295Z,2.65
2022-11-17T11:12:47.987Z,1.77
2022-11-17T11:13:54.974Z,0.98
2022-11-17T11:14:59.504Z,1.05
2022-11-17T11:16:01.082Z,1.00
2022-11-17T11:17:10.328Z,1.95
2022-11-17T11:18:13.059Z,5.97
2022-11-17T11:19:18.934Z,2.03
2022-11-17T11:20:25.335Z,1.98
2022-11-17T11:21:41.130Z,3.67
2022-11-17T11:22:47.055Z,1.95
2022-11-17T11:23:54.718Z,2.38
2022-11-17T11:25:04.723Z,2.80
2022-11-17T11:26:20.352Z,0.85
2022-11-17T11:27:38.842Z,0.82
2022-11-17T11:28:54.505Z,1.17
2022-11-17T11:30:02.829Z,1.27
2022-11-17T11:31:13.275Z,0.80
2022-11-17T11:32:22.410Z,1.60
2022-11-17T11:33:32.361Z,4.05
2022-11-17T11:35:04.735Z,1.23
2022-11-17T11:36:19.372Z,1.63
2022-11-17T11:37:24.967Z,1.88
2022-11-17T11:38:41.611Z,2.05
2022-11-17T11:39:52.604Z,1.25
2022-11-17T11:41:05.030Z,0.90
2022-11-17T11:42:28.829Z,0.95
2022-11-17T11:43:34.879Z,1.00
2022-11-17T11:44:50.218Z,0.98
2022-11-17T11:45:58.405Z,1.25
2022-11-17T11:47:04.183Z,1.50
2022-11-17T11:48:14.020Z,1.95
2022-11-17T11:49:27.251Z,1.73
2022-11-17T11:50:41.823Z,1.42
2022-11-17T11:51:52.033Z,1.35
2022-11-17T11:52:56.797Z,2.35
2022-11-17T11:54:02.759Z,2.58
2022-11-17T11:55:14.839Z,1.60
2022-11-17T11:56:21.388Z,1.45
2022-11-17T11:57:27.339Z,1.35
2022-11-17T11:58:29.879Z,1.02
2022-11-17T11:59:40.638Z,2.28
2022-11-17T12:00:42.984Z,1.42
2022-11-17T12:01:49.173Z,1.05
2022-11-17T12:02:54.115Z,2.30
2022-11-17T12:04:08.376Z,1.73
2022-11-17T12:05:17.064Z,3.75
2022-11-17T12:06:40.635Z,1.20
2022-11-17T12:07:47.561Z,4.03
2022-11-17T12:08:52.148Z,2.67
2022-11-17T12:10:04.313Z,1.08
2022-11-17T12:11:25.075Z,2.85
2022-11-17T12:12:31.553Z,3.17
2022-11-17T12:13:33.194Z,1.98
2022-11-17T12:14:37.387Z,2.00
2022-11-17T12:15:39.969Z,1.42
2022-11-17T12:16:44.359Z,1.38
2022-11-17T12:17:59.352Z,1.35
2022-11-17T12:19:02.017Z,3.60
2022-11-17T12:20:10.674Z,1.67
2022-11-17T12:21:14.348Z,2.13
2022-11-17T12:22:36.652Z,0.70
2022-11-17T12:24:09.727Z,2.60
2022-11-17T12:25:17.973Z,2.22
2022-11-17T12:26:25.755Z,1.10
2022-11-17T12:27:43.438Z,1.05
2022-11-17T12:28:46.040Z,1.17
2022-11-17T12:29:47.654Z,1.00
2022-11-17T12:30:53.488Z,2.05
2022-11-17T12:31:57.065Z,0.90
2022-11-17T12:32:59.146Z,2.72
2022-11-17T12:34:26.791Z,1.08
2022-11-17T12:35:30.214Z,0.80
2022-11-17T12:36:33.976Z,3.45
2022-11-17T12:37:36.761Z,1.05
2022-11-17T12:38:40.507Z,1.95
2022-11-17T12:39:55.985Z,1.52
2022-11-17T12:40:58.528Z,1.63
2022-11-17T12:42:08.074Z,1.88
2022-11-17T12:43:31.232Z,0.70
2022-11-17T12:44:57.960Z,2.78
2022-11-17T12:46:07.861Z,2.00
2022-11-17T12:47:15.057Z,1.38
2022-11-17T12:48:33.010Z,1.05
2022-11-17T12:49:43.164Z,2.83
2022-11-17T12:50:50.954Z,1.38
2022-11-17T12:51:55.846Z,1.67
2022-11-17T12:53:26.416Z,1.73
2022-11-17T12:54:34.418Z,1.00
2022-11-17T12:55:49.755Z,1.80
2022-11-17T12:56:58.162Z,1.98
2022-11-17T12:58:10.529Z,1.42
2022-11-17T12:59:27.049Z,1.38
2022-11-17T13:00:29.945Z,0.98
2022-11-17T13:01:38.069Z,1.95
2022-11-17T13:02:53.578Z,0.95
2022-11-17T13:03:59.916Z,0.82
2022-11-17T13:05:04.736Z,3.95
2022-11-17T13:06:28.286Z,3.08
2022-11-17T13:07:29.657Z,4.53
2022-11-17T13:08:32.219Z,1.75
2022-11-17T13:09:34.931Z,2.20
2022-11-17T13:10:37.545Z,1.38
2022-11-17T13:11:41.439Z,2.42
2022-11-17T13:12:42.997Z,0.95
2022-11-17T13:13:47.390Z,2.10
2022-11-17T13:14:53.757Z,1.38
2022-11-17T13:15:58.859Z,1.50
2022-11-17T13:17:00.976Z,1.70
2022-11-17T13:18:03.609Z,1.88
2022-11-17T13:19:31.717Z,2.35
2022-11-17T13:20:34.927Z,1.45
2022-11-17T13:21:37.500Z,3.25
2022-11-17T13:22:42.107Z,0.90
2022-11-17T13:23:44.753Z,2.03
2022-11-17T13:24:48.883Z,4.70
2022-11-17T13:25:50.974Z,1.75
2022-11-17T13:27:00.514Z,0.95
2022-11-17T13:28:05.141Z,0.52
2022-11-17T13:29:10.286Z,1.77
2022-11-17T13:30:14.826Z,0.65
2022-11-17T13:31:18.284Z,1.08
2022-11-17T13:32:23.865Z,3.42
2022-11-17T13:33:26.081Z,1.15
2022-11-17T13:34:28.617Z,4.07
2022-11-17T13:35:32.588Z,2.50
2022-11-17T13:36:35.369Z,0.88
2022-11-17T13:37:38.107Z,1.13
2022-11-17T13:38:47.964Z,1.10
2022-11-17T13:39:57.089Z,2.83
2022-11-17T13:40:59.986Z,0.60
2022-11-17T13:42:03.212Z,2.38
2022-11-17T13:43:06.370Z,1.85
2022-11-17T13:44:13.824Z,2.88
2022-11-17T13:45:17.099Z,0.70
2022-11-17T13:46:20.940Z,1.98
2022-11-17T13:47:28.222Z,2.28
2022-11-17T13:48:34.851Z,1.88
2022-11-17T13:49:38.444Z,1.27
2022-11-17T13:50:40.505Z,1.02
2022-11-17T13:51:44.483Z,1.35
2022-11-17T13:52:47.289Z,3.70
2022-11-17T13:53:52.013Z,2.70
2022-11-17T13:54:54.629Z,1.65
2022-11-17T13:55:56.166Z,1.13
2022-11-17T13:57:04.899Z,1.05
2022-11-17T13:58:24.509Z,2.67
2022-11-17T13:59:30.500Z,1.23
2022-11-17T14:00:32.676Z,2.42
2022-11-17T14:01:35.270Z,1.13
2022-11-17T14:02:36.819Z,1.13
2022-11-17T14:03:40.597Z,2.03
2022-11-17T14:04:42.560Z,0.80
2022-11-17T14:05:55.925Z,1.60
2022-11-17T14:07:00.959Z,1.85
2022-11-17T14:08:13.873Z,0.93
2022-11-17T14:09:18.569Z,1.00
2022-11-17T14:10:32.961Z,1.25
2022-11-17T14:11:35.479Z,1.00
2022-11-17T14:12:38.391Z,2.00
2022-11-17T14:13:42.188Z,2.42
2022-11-17T14:14:46.058Z,3.60
2022-11-17T14:15:53.781Z,0.60
2022-11-17T14:16:57.724Z,2.63
2022-11-17T14:18:00.445Z,1.90
2022-11-17T14:19:04.578Z,2.22
2022-11-17T14:20:20.878Z,1.52
2022-11-17T14:21:22.382Z,2.55
2022-11-17T14:22:31.389Z,0.80
2022-11-17T14:23:33.968Z,1.92
2022-11-17T14:24:37.647Z,1.92
2022-11-17T14:25:40.824Z,2.78